createdAt,value
2022-08-24T00:01:54.060Z,3.50
2022-08-24T00:04:21.814Z,3.20
2022-08-24T00:06:49.839Z,3.67
2022-08-24T00:09:17.605Z,3.50
2022-08-24T00:11:45.505Z,3.80
2022-08-24T00:14:14.969Z,3.30
2022-08-24T00:16:42.980Z,3.50
2022-08-24T00:19:11.074Z,3.30
2022-08-24T00:21:38.952Z,3.30
2022-08-24T00:24:06.729Z,3.17
2022-08-24T00:26:35.224Z,3.27
2022-08-24T00:29:06.930Z,3.37
2022-08-24T00:31:36.663Z,3.37
2022-08-24T00:34:04.630Z,3.00
2022-08-24T00:36:32.272Z,3.90
2022-08-24T00:39:00.676Z,4.13
2022-08-24T00:41:28.685Z,3.60
2022-08-24T00:43:58.247Z,3.93
2022-08-24T00:46:30.044Z,3.37
2022-08-24T00:49:03.725Z,4.17
2022-08-24T00:51:37.889Z,3.80
2022-08-24T00:54:08.785Z,3.90
2022-08-24T00:56:40.802Z,3.90
2022-08-24T00:59:13.164Z,3.67
2022-08-24T01:01:41.488Z,4.40
2022-08-24T01:04:15.534Z,3.60
2022-08-24T01:06:44.056Z,4.30
2022-08-24T01:09:11.640Z,3.90
2022-08-24T01:11:39.229Z,4.20
2022-08-24T01:14:07.833Z,4.20
2022-08-24T01:16:54.655Z,4.40
2022-08-24T01:19:32.573Z,4.40
2022-08-24T01:22:11.976Z,4.43
2022-08-24T01:24:41.638Z,4.50
2022-08-24T01:27:11.186Z,4.90
2022-08-24T01:29:40.185Z,3.93
2022-08-24T01:32:08.644Z,4.10
2022-08-24T01:34:36.661Z,4.20
2022-08-24T01:37:06.077Z,4.10
2022-08-24T01:39:37.412Z,4.20
2022-08-24T01:42:06.550Z,4.57
2022-08-24T01:44:36.896Z,4.60
2022-08-24T01:47:07.464Z,4.00
2022-08-24T01:49:37.917Z,4.23
2022-08-24T01:52:07.363Z,4.00
2022-08-24T01:54:35.785Z,3.80
2022-08-24T01:57:03.886Z,3.90
2022-08-24T01:59:33.030Z,4.40
2022-08-24T02:02:05.189Z,4.50
2022-08-24T02:04:35.060Z,4.30
2022-08-24T02:07:03.143Z,4.90
2022-08-24T02:09:32.756Z,4.00
2022-08-24T02:12:01.102Z,4.50
2022-08-24T02:14:30.718Z,4.37
2022-08-24T02:17:04.497Z,4.57
2022-08-24T02:19:32.309Z,4.50
2022-08-24T02:22:00.419Z,5.53
2022-08-24T02:24:28.277Z,4.70
2022-08-24T02:26:55.968Z,4.50
2022-08-24T02:29:23.520Z,5.17
2022-08-24T02:31:51.346Z,5.13
2022-08-24T02:34:21.387Z,4.20
2022-08-24T02:36:48.952Z,4.27
2022-08-24T02:39:16.825Z,4.40
2022-08-24T02:41:44.412Z,4.20
2022-08-24T02:44:12.129Z,5.20
2022-08-24T02:46:39.908Z,4.73
2022-08-24T02:49:11.937Z,4.67
2022-08-24T02:51:45.435Z,4.67
2022-08-24T02:54:17.293Z,4.20
2022-08-24T02:56:45.116Z,4.80
2022-08-24T02:59:13.964Z,4.70
2022-08-24T03:01:41.948Z,5.13
2022-08-24T03:04:10.096Z,4.70
2022-08-24T03:06:37.748Z,4.63
2022-08-24T03:09:06.677Z,5.03
2022-08-24T03:11:34.605Z,4.50
2022-08-24T03:14:02.555Z,4.53
2022-08-24T03:16:31.484Z,4.83
2022-08-24T03:18:59.341Z,4.77
2022-08-24T03:21:27.679Z,4.67
2022-08-24T03:23:55.308Z,4.57
2022-08-24T03:26:24.328Z,4.67
2022-08-24T03:28:52.533Z,4.10
2022-08-24T03:31:20.265Z,5.23
2022-08-24T03:33:47.873Z,4.77
2022-08-24T03:36:15.476Z,4.60
2022-08-24T03:38:43.372Z,5.60
2022-08-24T03:41:11.514Z,5.50
2022-08-24T03:43:48.686Z,5.20
2022-08-24T03:46:20.317Z,5.40
2022-08-24T03:48:48.637Z,5.90
2022-08-24T03:51:18.717Z,5.23
2022-08-24T03:53:46.971Z,5.60
2022-08-24T03:56:14.531Z,4.83
2022-08-24T03:58:43.878Z,4.97
2022-08-24T04:01:11.812Z,5.17
2022-08-24T04:03:41.561Z,4.87
2022-08-24T04:06:11.940Z,5.57
2022-08-24T04:08:40.984Z,5.00
2022-08-24T04:11:12.457Z,5.40
2022-08-24T04:13:40.656Z,5.47
2022-08-24T04:16:12.853Z,5.03
2022-08-24T04:18:41.721Z,5.57
2022-08-24T04:21:17.541Z,5.30
2022-08-24T04:23:47.139Z,5.20
2022-08-24T04:26:16.693Z,5.10
2022-08-24T04:29:00.421Z,5.00
2022-08-24T04:31:31.128Z,6.03
2022-08-24T04:33:58.885Z,4.90
2022-08-24T04:36:26.455Z,4.80
2022-08-24T04:38:53.992Z,4.70
2022-08-24T04:41:25.230Z,4.60
2022-08-24T04:43:59.989Z,5.00
2022-08-24T04:46:29.606Z,5.23
2022-08-24T04:48:57.292Z,5.57
2022-08-24T04:51:24.905Z,5.40
2022-08-24T04:53:52.595Z,5.20
2022-08-24T04:56:23.240Z,4.87
2022-08-24T04:58:51.398Z,5.27
2022-08-24T05:01:21.609Z,4.83
2022-08-24T05:03:54.051Z,4.93
2022-08-24T05:06:22.869Z,4.77
2022-08-24T05:08:50.878Z,4.73
2022-08-24T05:11:20.269Z,4.50
2022-08-24T05:13:48.451Z,4.27
2022-08-24T05:16:18.168Z,4.47
2022-08-24T05:18:46.773Z,4.47
2022-08-24T05:21:18.876Z,4.70
2022-08-24T05:23:47.244Z,3.80
2022-08-24T05:26:17.793Z,3.87
2022-08-24T05:28:46.178Z,4.17
2022-08-24T05:31:16.733Z,3.80
2022-08-24T05:33:44.941Z,4.00
2022-08-24T05:36:19.881Z,3.57
2022-08-24T05:38:48.778Z,3.83
2022-08-24T05:41:16.989Z,4.50
2022-08-24T05:43:45.036Z,3.80
2022-08-24T05:46:13.233Z,4.37
2022-08-24T05:48:40.897Z,3.70
2022-08-24T05:51:09.928Z,4.27
2022-08-24T05:53:40.200Z,4.07
2022-08-24T05:56:10.726Z,3.50
2022-08-24T05:58:39.506Z,3.70
2022-08-24T06:01:08.707Z,3.57
2022-08-24T06:03:36.606Z,3.53
2022-08-24T06:06:06.313Z,3.73
2022-08-24T06:08:39.377Z,3.40
2022-08-24T06:11:10.796Z,4.07
2022-08-24T06:13:39.439Z,4.37
2022-08-24T06:16:21.253Z,3.10
2022-08-24T06:18:50.647Z,3.30
2022-08-24T06:21:20.891Z,4.03
2022-08-24T06:23:48.913Z,3.97
2022-08-24T06:26:36.725Z,4.10
2022-08-24T06:29:04.989Z,3.13
2022-08-24T06:31:39.572Z,3.27
2022-08-24T06:34:10.211Z,3.50
2022-08-24T06:36:37.813Z,3.43
2022-08-24T06:39:08.885Z,3.93
2022-08-24T06:41:39.862Z,3.20
2022-08-24T06:44:08.516Z,3.70
2022-08-24T06:46:37.241Z,3.60
2022-08-24T06:49:05.599Z,3.80
2022-08-24T06:51:33.443Z,3.93
2022-08-24T06:54:01.410Z,3.37
2022-08-24T06:56:29.115Z,3.90
2022-08-24T06:58:58.125Z,3.30
2022-08-24T07:01:28.285Z,4.20
2022-08-24T07:03:56.517Z,3.33
2022-08-24T07:06:24.770Z,3.17
2022-08-24T07:08:53.355Z,2.77
2022-08-24T07:11:21.920Z,3.20
2022-08-24T07:13:50.292Z,3.53
2022-08-24T07:16:20.949Z,3.57
2022-08-24T07:18:50.256Z,3.03
2022-08-24T07:21:19.456Z,3.50
2022-08-24T07:23:47.961Z,3.63
2022-08-24T07:26:21.287Z,3.50
2022-08-24T07:28:49.992Z,3.50
2022-08-24T07:31:19.125Z,3.73
2022-08-24T07:33:46.782Z,3.87
2022-08-24T07:36:22.262Z,3.70
2022-08-24T07:38:52.047Z,3.00
2022-08-24T07:41:40.359Z,3.60
2022-08-24T07:44:08.540Z,3.37
2022-08-24T07:46:38.912Z,3.87
2022-08-24T07:49:19.283Z,3.53
2022-08-24T07:51:54.829Z,4.07
2022-08-24T07:54:22.399Z,3.47
2022-08-24T07:56:50.240Z,3.80
2022-08-24T07:59:18.293Z,3.73
2022-08-24T08:01:47.308Z,3.30
2022-08-24T08:04:16.208Z,3.33
2022-08-24T08:06:44.281Z,4.03
2022-08-24T08:09:11.888Z,3.83
2022-08-24T08:11:39.597Z,3.67
2022-08-24T08:14:07.162Z,4.10
2022-08-24T08:16:34.775Z,3.50
2022-08-24T08:19:11.504Z,3.37
2022-08-24T08:22:00.416Z,4.07
2022-08-24T08:24:28.321Z,4.20
2022-08-24T08:26:57.681Z,3.57
2022-08-24T08:29:25.473Z,3.83
2022-08-24T08:31:53.245Z,3.57
2022-08-24T08:34:22.182Z,3.13
2022-08-24T08:36:50.259Z,3.43
2022-08-24T08:39:20.007Z,3.37
2022-08-24T08:42:05.897Z,3.20
2022-08-24T08:44:53.898Z,3.60
2022-08-24T08:47:43.692Z,4.10
2022-08-24T08:50:21.781Z,3.63
2022-08-24T08:53:18.678Z,3.63
2022-08-24T08:55:53.985Z,3.87
2022-08-24T08:58:46.805Z,3.30
2022-08-24T09:01:46.812Z,3.43
2022-08-24T09:04:40.759Z,4.10
2022-08-24T09:07:21.188Z,3.50
2022-08-24T09:10:05.453Z,3.00
2022-08-24T09:12:50.044Z,3.33
2022-08-24T09:15:42.106Z,3.13
2022-08-24T09:18:31.989Z,3.83
2022-08-24T09:21:28.581Z,3.40
2022-08-24T09:24:22.717Z,3.40
2022-08-24T09:27:00.549Z,3.87
2022-08-24T09:29:45.676Z,3.97
2022-08-24T09:32:32.874Z,2.90
2022-08-24T09:35:03.298Z,3.80
2022-08-24T09:37:34.573Z,3.17
2022-08-24T09:40:18.504Z,2.90
2022-08-24T09:43:11.722Z,3.13
2022-08-24T09:45:59.912Z,3.60
2022-08-24T09:49:13.638Z,3.93
2022-08-24T09:52:32.705Z,3.90
2022-08-24T09:55:41.614Z,3.40
2022-08-24T09:58:19.628Z,3.70
2022-08-24T10:00:49.366Z,3.50
2022-08-24T10:03:36.329Z,3.57
2022-08-24T10:06:26.469Z,3.87
2022-08-24T10:09:10.513Z,3.13
2022-08-24T10:11:46.327Z,3.63
2022-08-24T10:14:25.718Z,3.70
2022-08-24T10:17:10.733Z,3.10
2022-08-24T10:19:50.349Z,3.53
2022-08-24T10:22:29.824Z,3.30
2022-08-24T10:25:15.172Z,3.30
2022-08-24T10:27:50.713Z,3.23
2022-08-24T10:30:57.620Z,3.30
2022-08-24T10:33:29.480Z,3.80
2022-08-24T10:36:21.183Z,2.87
2022-08-24T10:39:08.739Z,3.00
2022-08-24T10:42:00.764Z,3.40
2022-08-24T10:44:48.339Z,3.43
2022-08-24T10:47:26.794Z,3.33
2022-08-24T10:50:17.717Z,2.53
2022-08-24T10:53:05.605Z,3.77
2022-08-24T10:55:35.494Z,3.10
2022-08-24T10:58:34.042Z,3.37
2022-08-24T11:01:15.929Z,3.20
2022-08-24T11:03:59.954Z,3.60
2022-08-24T11:06:33.940Z,3.13
2022-08-24T11:09:06.405Z,3.40
2022-08-24T11:11:36.734Z,3.47
2022-08-24T11:14:23.058Z,3.67
2022-08-24T11:16:55.767Z,3.07
2022-08-24T11:19:33.024Z,3.50
2022-08-24T11:22:04.426Z,3.10
2022-08-24T11:24:43.124Z,3.67
2022-08-24T11:27:26.258Z,3.43
2022-08-24T11:30:03.793Z,3.40
2022-08-24T11:32:37.766Z,3.47
2022-08-24T11:35:09.423Z,3.20
2022-08-24T11:37:40.116Z,3.57
2022-08-24T11:40:09.939Z,3.27
2022-08-24T11:42:50.045Z,3.23
2022-08-24T11:45:24.507Z,3.77
2022-08-24T11:48:03.369Z,2.80
2022-08-24T11:50:40.840Z,3.40
2022-08-24T11:53:20.624Z,3.40
2022-08-24T11:55:57.562Z,3.43
2022-08-24T11:58:41.337Z,3.20
2022-08-24T12:01:17.614Z,3.80
2022-08-24T12:04:00.598Z,3.60
2022-08-24T12:06:37.422Z,4.57
2022-08-24T12:09:14.033Z,4.40
2022-08-24T12:11:50.080Z,4.13
2022-08-24T12:14:25.877Z,4.93
2022-08-24T12:17:03.302Z,4.67
2022-08-24T12:19:34.135Z,4.50
2022-08-24T12:22:06.521Z,4.07
2022-08-24T12:24:40.168Z,4.47
2022-08-24T12:27:13.078Z,5.13
2022-08-24T12:29:45.394Z,5.17
2022-08-24T12:32:19.201Z,4.70
2022-08-24T12:34:54.181Z,4.97
2022-08-24T12:37:29.640Z,4.60
2022-08-24T12:40:07.979Z,5.10
2022-08-24T12:42:46.623Z,4.57
2022-08-24T12:45:20.294Z,4.50
2022-08-24T12:47:53.280Z,4.87
2022-08-24T12:50:26.572Z,4.60
2022-08-24T12:53:30.418Z,4.80
2022-08-24T12:56:39.978Z,4.63
2022-08-24T12:59:16.680Z,4.50
2022-08-24T13:01:47.870Z,4.27
2022-08-24T13:04:30.652Z,5.10
2022-08-24T13:07:02.752Z,4.30
2022-08-24T13:09:33.808Z,5.03
2022-08-24T13:12:42.041Z,5.10
2022-08-24T13:15:27.989Z,5.00
2022-08-24T13:18:02.588Z,5.00
2022-08-24T13:20:56.424Z,4.57
2022-08-24T13:23:27.264Z,4.77
2022-08-24T13:25:59.047Z,4.60
2022-08-24T13:28:40.261Z,4.70
2022-08-24T13:31:28.971Z,3.93
2022-08-24T13:34:00.601Z,4.97
2022-08-24T13:36:49.694Z,4.80
2022-08-24T13:39:43.212Z,4.23
2022-08-24T13:42:19.477Z,4.50
2022-08-24T13:45:15.560Z,4.77
2022-08-24T13:47:53.165Z,4.73
2022-08-24T13:50:43.380Z,4.30
2022-08-24T13:53:38.856Z,5.00
2022-08-24T13:56:32.015Z,4.80
2022-08-24T13:59:09.626Z,4.80
2022-08-24T14:01:46.915Z,4.70
2022-08-24T14:04:33.465Z,4.83
2022-08-24T14:07:09.338Z,4.20
2022-08-24T14:09:48.955Z,4.20
2022-08-24T14:12:25.745Z,4.27
2022-08-24T14:15:10.705Z,5.13
2022-08-24T14:17:54.151Z,5.30
2022-08-24T14:20:43.328Z,5.10
2022-08-24T14:23:25.170Z,5.23
2022-08-24T14:26:28.946Z,4.40
2022-08-24T14:29:46.681Z,4.93
2022-08-24T14:32:50.062Z,4.70
2022-08-24T14:35:33.509Z,4.43
2022-08-24T14:38:12.919Z,4.50
2022-08-24T14:40:54.154Z,5.23
2022-08-24T14:43:31.080Z,5.77
2022-08-24T14:46:09.358Z,4.47
2022-08-24T14:48:47.243Z,4.17
2022-08-24T14:51:35.607Z,3.80
2022-08-24T14:54:17.080Z,4.33
2022-08-24T14:56:57.024Z,3.50
2022-08-24T14:59:40.358Z,4.00
2022-08-24T15:02:49.900Z,3.90
2022-08-24T15:05:25.051Z,4.00
2022-08-24T15:07:58.659Z,4.03
2022-08-24T15:10:29.948Z,4.43
2022-08-24T15:13:03.818Z,4.03
2022-08-24T15:15:36.369Z,4.57
2022-08-24T15:18:10.138Z,4.40
2022-08-24T15:20:50.644Z,4.43
2022-08-24T15:23:25.390Z,3.93
2022-08-24T15:25:59.256Z,4.13
2022-08-24T15:28:29.974Z,5.00
2022-08-24T15:31:01.160Z,4.50
2022-08-24T15:33:30.505Z,4.20
2022-08-24T15:36:09.358Z,4.80
2022-08-24T15:38:40.809Z,3.97
2022-08-24T15:41:13.185Z,4.00
2022-08-24T15:43:46.283Z,5.00
2022-08-24T15:46:17.933Z,4.83
2022-08-24T15:48:47.843Z,4.40
2022-08-24T15:51:33.606Z,4.00
2022-08-24T15:54:19.640Z,4.50
2022-08-24T15:56:53.162Z,4.77
2022-08-24T15:59:28.617Z,5.17
2022-08-24T16:02:28.421Z,4.47
2022-08-24T16:05:10.414Z,4.93
2022-08-24T16:08:09.369Z,4.27
2022-08-24T16:10:41.488Z,4.90
2022-08-24T16:13:14.393Z,4.03
2022-08-24T16:15:47.709Z,4.60
2022-08-24T16:18:16.653Z,4.40
2022-08-24T16:20:46.150Z,4.40
2022-08-24T16:23:22.103Z,5.03
2022-08-24T16:25:51.392Z,4.43
2022-08-24T16:28:36.133Z,5.10
2022-08-24T16:31:07.939Z,4.90
2022-08-24T16:33:45.782Z,5.63
2022-08-24T16:36:15.912Z,5.50
2022-08-24T16:38:47.636Z,4.90
2022-08-24T16:41:19.125Z,4.80
2022-08-24T16:43:47.885Z,5.70
2022-08-24T16:46:20.673Z,4.97
2022-08-24T16:48:48.373Z,5.40
2022-08-24T16:51:15.943Z,5.63
2022-08-24T16:53:43.706Z,5.83
2022-08-24T16:56:14.846Z,4.90
2022-08-24T16:58:47.247Z,5.10
2022-08-24T17:01:15.388Z,6.20
2022-08-24T17:03:43.244Z,5.33
2022-08-24T17:06:12.224Z,6.13
2022-08-24T17:08:40.635Z,6.00
2022-08-24T17:11:08.587Z,6.37
2022-08-24T17:13:51.584Z,6.67
2022-08-24T17:16:21.938Z,5.90
2022-08-24T17:18:49.781Z,5.63
2022-08-24T17:21:17.765Z,5.80
2022-08-24T17:23:45.622Z,5.80
2022-08-24T17:26:20.775Z,5.13
2022-08-24T17:28:51.615Z,5.83
2022-08-24T17:31:21.082Z,6.77
2022-08-24T17:33:49.111Z,5.47
2022-08-24T17:36:17.709Z,6.23
2022-08-24T17:38:52.972Z,6.20
2022-08-24T17:41:24.078Z,6.27
2022-08-24T17:43:52.213Z,6.87
2022-08-24T17:46:21.871Z,5.60
2022-08-24T17:48:49.847Z,6.23
2022-08-24T17:51:17.820Z,4.97
2022-08-24T17:53:45.418Z,6.00
2022-08-24T17:56:15.282Z,6.13
2022-08-24T17:59:01.023Z,6.10
2022-08-24T18:01:30.353Z,5.80
2022-08-24T18:03:58.148Z,5.63
2022-08-24T18:06:27.788Z,6.23
2022-08-24T18:08:56.642Z,5.80
2022-08-24T18:11:26.150Z,5.27
2022-08-24T18:13:54.606Z,5.40
2022-08-24T18:16:24.280Z,5.40
2022-08-24T18:18:54.523Z,5.80
2022-08-24T18:21:22.980Z,4.93
2022-08-24T18:23:51.086Z,4.60
2022-08-24T18:26:27.647Z,5.23
2022-08-24T18:28:58.177Z,5.33
2022-08-24T18:31:28.251Z,5.90
2022-08-24T18:33:57.672Z,6.00
2022-08-24T18:36:25.229Z,5.10
2022-08-24T18:38:53.128Z,5.47
2022-08-24T18:41:21.444Z,5.40
2022-08-24T18:43:49.324Z,5.97
2022-08-24T18:46:17.075Z,5.60
2022-08-24T18:48:44.850Z,5.23
2022-08-24T18:51:16.193Z,5.63
2022-08-24T18:53:43.826Z,5.33
2022-08-24T18:56:12.607Z,5.03
2022-08-24T18:58:40.684Z,5.23
2022-08-24T19:01:08.689Z,5.40
2022-08-24T19:03:36.585Z,6.23
2022-08-24T19:06:04.220Z,5.33
2022-08-24T19:08:33.173Z,5.00
2022-08-24T19:11:00.881Z,5.37
2022-08-24T19:13:28.504Z,5.23
2022-08-24T19:15:57.934Z,5.60
2022-08-24T19:18:25.570Z,5.00
2022-08-24T19:20:55.769Z,5.47
2022-08-24T19:23:27.148Z,4.20
2022-08-24T19:25:56.794Z,4.80
2022-08-24T19:28:26.299Z,4.73
2022-08-24T19:30:55.751Z,4.90
2022-08-24T19:33:26.166Z,5.10
2022-08-24T19:35:53.974Z,5.17
2022-08-24T19:38:25.930Z,5.17
2022-08-24T19:40:54.360Z,5.53
2022-08-24T19:43:25.576Z,5.80
2022-08-24T19:46:02.244Z,5.30
2022-08-24T19:48:30.156Z,5.77
2022-08-24T19:50:59.796Z,5.57
2022-08-24T19:53:28.590Z,6.47
2022-08-24T19:55:56.190Z,5.93
2022-08-24T19:58:30.465Z,4.47
2022-08-24T20:01:02.958Z,5.83
2022-08-24T20:03:31.178Z,5.30
2022-08-24T20:05:58.783Z,5.27
2022-08-24T20:08:26.392Z,5.70
2022-08-24T20:10:58.536Z,5.60
2022-08-24T20:13:28.419Z,5.67
2022-08-24T20:15:58.269Z,5.40
2022-08-24T20:18:30.560Z,6.33
2022-08-24T20:20:58.492Z,5.30
2022-08-24T20:23:26.721Z,5.30
2022-08-24T20:25:55.933Z,5.77
2022-08-24T20:28:34.774Z,6.03
2022-08-24T20:31:06.778Z,5.90
2022-08-24T20:33:34.532Z,5.83
2022-08-24T20:36:02.825Z,5.63
2022-08-24T20:38:31.872Z,5.53
2022-08-24T20:41:00.796Z,6.10
2022-08-24T20:43:28.513Z,5.90
2022-08-24T20:45:56.632Z,5.53
2022-08-24T20:48:29.413Z,5.50
2022-08-24T20:50:57.387Z,6.23
2022-08-24T20:53:25.520Z,6.33
2022-08-24T20:55:54.499Z,5.67
2022-08-24T20:58:23.136Z,5.70
2022-08-24T21:00:51.013Z,5.77
2022-08-24T21:03:19.165Z,5.97
2022-08-24T21:05:51.223Z,6.40
2022-08-24T21:08:19.403Z,6.73
2022-08-24T21:10:47.004Z,6.60
2022-08-24T21:13:14.564Z,6.00
2022-08-24T21:15:42.402Z,6.53
2022-08-24T21:18:10.712Z,7.47
2022-08-24T21:20:39.284Z,6.60
2022-08-24T21:23:13.601Z,7.30
2022-08-24T21:25:41.409Z,7.50
2022-08-24T21:28:09.384Z,6.73
2022-08-24T21:30:41.651Z,6.93
2022-08-24T21:33:27.046Z,7.07
2022-08-24T21:35:55.053Z,7.00
2022-08-24T21:38:25.144Z,7.13
2022-08-24T21:40:53.541Z,7.47
2022-08-24T21:43:21.936Z,7.07
2022-08-24T21:45:50.673Z,7.20
2022-08-24T21:48:19.628Z,6.80
2022-08-24T21:50:49.158Z,7.13
2022-08-24T21:53:17.084Z,7.50
2022-08-24T21:55:46.170Z,6.63
2022-08-24T21:58:13.736Z,6.60
2022-08-24T22:00:41.274Z,7.93
2022-08-24T22:03:09.910Z,7.90
2022-08-24T22:05:37.780Z,7.07
2022-08-24T22:08:05.997Z,8.03
2022-08-24T22:10:33.560Z,7.93
2022-08-24T22:13:04.510Z,7.37
2022-08-24T22:15:32.731Z,8.00
2022-08-24T22:18:01.212Z,6.80
2022-08-24T22:20:29.197Z,7.27
2022-08-24T22:22:58.309Z,6.60
2022-08-24T22:25:26.025Z,7.30
2022-08-24T22:27:53.599Z,7.40
2022-08-24T22:30:22.772Z,7.30
2022-08-24T22:32:50.345Z,7.10
2022-08-24T22:35:17.913Z,7.30
2022-08-24T22:37:45.649Z,6.90
2022-08-24T22:40:13.607Z,7.20
2022-08-24T22:42:41.565Z,6.90
2022-08-24T22:45:11.046Z,6.40
2022-08-24T22:47:40.002Z,6.40
2022-08-24T22:50:09.006Z,7.10
2022-08-24T22:52:36.566Z,6.47
2022-08-24T22:55:05.588Z,6.20
2022-08-24T22:57:34.452Z,6.30
2022-08-24T23:00:02.204Z,7.10
2022-08-24T23:02:29.793Z,7.07
2022-08-24T23:04:58.730Z,6.70
2022-08-24T23:07:26.274Z,6.77
2022-08-24T23:09:54.008Z,6.37
2022-08-24T23:12:24.059Z,7.17
2022-08-24T23:14:53.253Z,6.77
2022-08-24T23:17:22.249Z,6.60
2022-08-24T23:20:01.417Z,5.73
2022-08-24T23:22:33.106Z,6.67
2022-08-24T23:25:01.421Z,5.83
2022-08-24T23:27:37.585Z,6.80
2022-08-24T23:30:09.464Z,5.97
2022-08-24T23:32:37.075Z,6.00
2022-08-24T23:35:05.817Z,6.00
2022-08-24T23:37:34.767Z,6.80
2022-08-24T23:40:03.143Z,7.00
2022-08-24T23:42:30.768Z,7.13
2022-08-24T23:44:58.423Z,6.70
2022-08-24T23:47:27.725Z,6.50
2022-08-24T23:49:55.441Z,5.80
2022-08-24T23:52:26.583Z,7.37
2022-08-24T23:55:18.207Z,6.73
2022-08-24T23:57:45.646Z,6.57
